sensor_id;sensor_type;location;lat;lon;timestamp;pressure;altitude;pressure_sealevel;temperature;humidity
36062;BME280;22123;52.412;20.970;2022-12-07T00:01:05;99983.88;;;-0.55;100.00
36062;BME280;22123;52.412;20.970;2022-12-07T00:03:30;99990.09;;;-0.56;100.00
36062;BME280;22123;52.412;20.970;2022-12-07T00:05:59;99974.34;;;-0.57;100.00
36062;BME280;22123;52.412;20.970;2022-12-07T00:08:24;99977.00;;;-0.57;100.00
36062;BME280;22123;52.412;20.970;2022-12-07T00:10:49;99972.53;;;-0.57;100.00
36062;BME280;22123;52.412;20.970;2022-12-07T00:13:15;99971.59;;;-0.56;100.00
36062;BME280;22123;52.412;20.970;2022-12-07T00:15:40;99968.94;;;-0.56;100.00
36062;BME280;22123;52.412;20.970;2022-12-07T00:18:05;99969.78;;;-0.55;100.00
36062;BME280;22123;52.412;20.970;2022-12-07T00:20:31;99975.94;;;-0.55;100.00
36062;BME280;22123;52.412;20.970;2022-12-07T00:22:56;99966.19;;;-0.54;100.00
36062;BME280;22123;52.412;20.970;2022-12-07T00:25:21;99970.66;;;-0.55;100.00
36062;BME280;22123;52.412;20.970;2022-12-07T00:27:47;99973.19;;;-0.53;100.00
36062;BME280;22123;52.412;20.970;2022-12-07T00:30:12;99969.59;;;-0.52;100.00
36062;BME280;22123;52.412;20.970;2022-12-07T00:32:37;99974.88;;;-0.52;100.00
36062;BME280;22123;52.412;20.970;2022-12-07T00:35:03;99974.00;;;-0.53;100.00
36062;BME280;22123;52.412;20.970;2022-12-07T00:37:28;99972.94;;;-0.50;100.00
36062;BME280;22123;52.412;20.970;2022-12-07T00:39:53;99968.59;;;-0.51;100.00
36062;BME280;22123;52.412;20.970;2022-12-07T00:42:18;99970.19;;;-0.48;100.00
36062;BME280;22123;52.412;20.970;2022-12-07T00:44:44;99965.72;;;-0.48;100.00
36062;BME280;22123;52.412;20.970;2022-12-07T00:47:09;99969.13;;;-0.46;100.00
36062;BME280;22123;52.412;20.970;2022-12-07T00:49:34;99965.53;;;-0.45;100.00
36062;BME280;22123;52.412;20.970;2022-12-07T00:51:59;99967.19;;;-0.44;100.00
36062;BME280;22123;52.412;20.970;2022-12-07T00:54:25;99960.13;;;-0.43;100.00
36062;BME280;22123;52.412;20.970;2022-12-07T00:56:50;99956.50;;;-0.42;100.00
36062;BME280;22123;52.412;20.970;2022-12-07T00:59:15;99960.84;;;-0.41;100.00
36062;BME280;22123;52.412;20.970;2022-12-07T01:01:40;99956.38;;;-0.41;100.00
36062;BME280;22123;52.412;20.970;2022-12-07T01:04:06;99954.59;;;-0.40;100.00
36062;BME280;22123;52.412;20.970;2022-12-07T01:06:31;99956.38;;;-0.41;100.00
36062;BME280;22123;52.412;20.970;2022-12-07T01:11:25;99958.19;;;-0.41;100.00
36062;BME280;22123;52.412;20.970;2022-12-07T01:13:51;99954.50;;;-0.39;100.00
36062;BME280;22123;52.412;20.970;2022-12-07T01:16:17;99949.31;;;-0.40;100.00
36062;BME280;22123;52.412;20.970;2022-12-07T01:18:45;99957.25;;;-0.40;100.00
36062;BME280;22123;52.412;20.970;2022-12-07T01:21:15;99953.63;;;-0.39;100.00
36062;BME280;22123;52.412;20.970;2022-12-07T01:23:41;99951.84;;;-0.39;100.00
36062;BME280;22123;52.412;20.970;2022-12-07T01:26:08;99949.19;;;-0.39;100.00
36062;BME280;22123;52.412;20.970;2022-12-07T01:28:34;99943.78;;;-0.37;100.00
36062;BME280;22123;52.412;20.970;2022-12-07T01:31:07;99949.91;;;-0.37;100.00
36062;BME280;22123;52.412;20.970;2022-12-07T01:33:37;99946.31;;;-0.36;100.00
36062;BME280;22123;52.412;20.970;2022-12-07T01:38:29;99933.22;;;-0.37;100.00
36062;BME280;22123;52.412;20.970;2022-12-07T01:40:55;99933.09;;;-0.36;100.00
36062;BME280;22123;52.412;20.970;2022-12-07T01:43:21;99933.09;;;-0.36;100.00
36062;BME280;22123;52.412;20.970;2022-12-07T01:45:47;99928.53;;;-0.33;100.00
36062;BME280;22123;52.412;20.970;2022-12-07T01:48:13;99940.69;;;-0.31;100.00
36062;BME280;22123;52.412;20.970;2022-12-07T01:50:40;99931.91;;;-0.31;100.00
36062;BME280;22123;52.412;20.970;2022-12-07T01:53:07;99927.56;;;-0.32;100.00
36062;BME280;22123;52.412;20.970;2022-12-07T01:55:34;99929.25;;;-0.31;100.00
36062;BME280;22123;52.412;20.970;2022-12-07T01:58:02;99938.97;;;-0.32;100.00
36062;BME280;22123;52.412;20.970;2022-12-07T02:00:27;99921.56;;;-0.34;100.00
36062;BME280;22123;52.412;20.970;2022-12-07T02:03:39;99933.09;;;-0.36;100.00
36062;BME280;22123;52.412;20.970;2022-12-07T02:05:38;99924.31;;;-0.36;100.00
36062;BME280;22123;52.412;20.970;2022-12-07T02:08:05;99926.97;;;-0.36;100.00
36062;BME280;22123;52.412;20.970;2022-12-07T02:10:31;99923.34;;;-0.35;100.00
36062;BME280;22123;52.412;20.970;2022-12-07T02:12:58;99926.84;;;-0.34;100.00
36062;BME280;22123;52.412;20.970;2022-12-07T02:15:29;99918.81;;;-0.33;100.00
36062;BME280;22123;52.412;20.970;2022-12-07T02:18:00;99917.00;;;-0.32;100.00
36062;BME280;22123;52.412;20.970;2022-12-07T02:20:33;99918.56;;;-0.30;100.00
36062;BME280;22123;52.412;20.970;2022-12-07T02:23:20;99918.44;;;-0.28;100.00
36062;BME280;22123;52.412;20.970;2022-12-07T02:28:33;99915.69;;;-0.27;100.00
36062;BME280;22123;52.412;20.970;2022-12-07T02:31:02;99916.19;;;-0.22;100.00
36062;BME280;22123;52.412;20.970;2022-12-07T02:33:37;99916.06;;;-0.20;100.00
36062;BME280;22123;52.412;20.970;2022-12-07T02:36:27;99913.19;;;-0.17;100.00
36062;BME280;22123;52.412;20.970;2022-12-07T02:39:11;99908.50;;;-0.13;100.00
36062;BME280;22123;52.412;20.970;2022-12-07T02:41:52;99906.47;;;-0.10;100.00
36062;BME280;22123;52.412;20.970;2022-12-07T02:44:21;99908.13;;;-0.09;100.00
36062;BME280;22123;52.412;20.970;2022-12-07T02:46:59;99903.72;;;-0.08;100.00
36062;BME280;22123;52.412;20.970;2022-12-07T02:49:26;99908.03;;;-0.07;100.00
36062;BME280;22123;52.412;20.970;2022-12-07T02:51:53;99904.41;;;-0.06;100.00
36062;BME280;22123;52.412;20.970;2022-12-07T02:54:19;99914.16;;;-0.07;100.00
36062;BME280;22123;52.412;20.970;2022-12-07T02:59:28;99901.78;;;-0.06;100.00
36062;BME280;22123;52.412;20.970;2022-12-07T03:04:42;99906.94;;;-0.05;100.00
36062;BME280;22123;52.412;20.970;2022-12-07T03:07:18;99899.88;;;-0.04;100.00
36062;BME280;22123;52.412;20.970;2022-12-07T03:09:52;99908.63;;;-0.04;100.00
36062;BME280;22123;52.412;20.970;2022-12-07T03:12:31;99907.69;;;-0.03;100.00
36062;BME280;22123;52.412;20.970;2022-12-07T03:15:34;99904.19;;;-0.03;100.00
36062;BME280;22123;52.412;20.970;2022-12-07T03:17:52;99899.75;;;-0.03;100.00
36062;BME280;22123;52.412;20.970;2022-12-07T03:20:19;99905.88;;;-0.02;100.00
36062;BME280;22123;52.412;20.970;2022-12-07T03:22:45;99905.75;;;-0.01;100.00
36062;BME280;22123;52.412;20.970;2022-12-07T03:25:13;99905.03;;;-0.03;100.00
36062;BME280;22123;52.412;20.970;2022-12-07T03:30:15;99898.75;;;-0.02;100.00
36062;BME280;22123;52.412;20.970;2022-12-07T03:35:10;99894.47;;;-0.03;100.00
36062;BME280;22123;52.412;20.970;2022-12-07T03:37:42;99890.94;;;-0.03;100.00
36062;BME280;22123;52.412;20.970;2022-12-07T03:40:14;99881.22;;;-0.03;100.00
36062;BME280;22123;52.412;20.970;2022-12-07T03:42:41;99874.13;;;-0.02;100.00
36062;BME280;22123;52.412;20.970;2022-12-07T03:45:07;99872.31;;;-0.02;100.00
36062;BME280;22123;52.412;20.970;2022-12-07T03:47:34;99880.38;;;-0.03;100.00
36062;BME280;22123;52.412;20.970;2022-12-07T03:50:11;99875.94;;;-0.03;100.00
36062;BME280;22123;52.412;20.970;2022-12-07T03:52:59;99875.94;;;-0.03;100.00
36062;BME280;22123;52.412;20.970;2022-12-07T03:55:30;99869.78;;;-0.03;100.00
36062;BME280;22123;52.412;20.970;2022-12-07T03:57:58;99871.59;;;-0.04;100.00
36062;BME280;22123;52.412;20.970;2022-12-07T04:00:25;99872.44;;;-0.03;100.00
36062;BME280;22123;52.412;20.970;2022-12-07T04:02:51;99871.59;;;-0.04;100.00
36062;BME280;22123;52.412;20.970;2022-12-07T04:05:16;99868.13;;;-0.04;100.00
36062;BME280;22123;52.412;20.970;2022-12-07T04:07:41;99865.34;;;-0.03;100.00
36062;BME280;22123;52.412;20.970;2022-12-07T04:10:07;99862.81;;;-0.04;100.00
36062;BME280;22123;52.412;20.970;2022-12-07T04:12:32;99862.81;;;-0.04;100.00
36062;BME280;22123;52.412;20.970;2022-12-07T04:14:57;99856.66;;;-0.05;100.00
36062;BME280;22123;52.412;20.970;2022-12-07T04:17:23;99860.19;;;-0.04;100.00
36062;BME280;22123;52.412;20.970;2022-12-07T04:19:48;99854.03;;;-0.05;100.00
36062;BME280;22123;52.412;20.970;2022-12-07T04:22:13;99854.88;;;-0.04;100.00
36062;BME280;22123;52.412;20.970;2022-12-07T04:24:39;99861.00;;;-0.04;100.00
36062;BME280;22123;52.412;20.970;2022-12-07T04:27:04;99857.41;;;-0.03;100.00
36062;BME280;22123;52.412;20.970;2022-12-07T04:29:29;99858.25;;;-0.02;100.00
36062;BME280;22123;52.412;20.970;2022-12-07T04:31:54;99852.13;;;-0.03;100.00
36062;BME280;22123;52.412;20.970;2022-12-07T04:34:20;99852.94;;;-0.02;100.00
36062;BME280;22123;52.412;20.970;2022-12-07T04:36:46;99857.28;;;-0.01;100.00
36062;BME280;22123;52.412;20.970;2022-12-07T04:39:22;99847.53;;;-0.01;100.00
36062;BME280;22123;52.412;20.970;2022-12-07T04:41:47;99849.34;;;-0.01;100.00
36062;BME280;22123;52.412;20.970;2022-12-07T04:44:13;99850.19;;;-0.01;100.00
36062;BME280;22123;52.412;20.970;2022-12-07T04:46:39;99848.47;;;-0.02;100.00
36062;BME280;22123;52.412;20.970;2022-12-07T04:49:04;99842.25;;;-0.01;100.00
36062;BME280;22123;52.412;20.970;2022-12-07T04:51:30;99846.69;;;-0.01;100.00
36062;BME280;22123;52.412;20.970;2022-12-07T04:53:55;99846.69;;;-0.01;100.00
36062;BME280;22123;52.412;20.970;2022-12-07T04:56:21;99845.84;;;-0.02;100.00
36062;BME280;22123;52.412;20.970;2022-12-07T04:58:47;99844.19;;;-0.03;100.00
36062;BME280;22123;52.412;20.970;2022-12-07T05:01:13;99846.81;;;-0.03;100.00
36062;BME280;22123;52.412;20.970;2022-12-07T05:03:39;99836.25;;;-0.03;100.00
36062;BME280;22123;52.412;20.970;2022-12-07T05:06:04;99834.53;;;-0.04;100.00
36062;BME280;22123;52.412;20.970;2022-12-07T05:08:30;99833.72;;;-0.04;100.00
36062;BME280;22123;52.412;20.970;2022-12-07T05:10:56;99838.13;;;-0.05;100.00
36062;BME280;22123;52.412;20.970;2022-12-07T05:13:21;99832.13;;;-0.07;100.00
36062;BME280;22123;52.412;20.970;2022-12-07T05:15:47;99837.31;;;-0.05;100.00
36062;BME280;22123;52.412;20.970;2022-12-07T05:18:12;99834.03;;;-0.09;100.00
36062;BME280;22123;52.412;20.970;2022-12-07T05:20:38;99831.53;;;-0.10;100.00
36062;BME280;22123;52.412;20.970;2022-12-07T05:23:03;99831.53;;;-0.10;100.00
36062;BME280;22123;52.412;20.970;2022-12-07T05:25:29;99827.34;;;-0.13;100.00
36062;BME280;22123;52.412;20.970;2022-12-07T05:27:54;99831.06;;;-0.15;100.00
36062;BME280;22123;52.412;20.970;2022-12-07T05:30:20;99829.34;;;-0.16;100.00
36062;BME280;22123;52.412;20.970;2022-12-07T05:32:47;99826.00;;;-0.19;100.00
36062;BME280;22123;52.412;20.970;2022-12-07T05:35:12;99829.59;;;-0.20;100.00
36062;BME280;22123;52.412;20.970;2022-12-07T05:37:37;99829.72;;;-0.21;100.00
36062;BME280;22123;52.412;20.970;2022-12-07T05:40:03;99826.38;;;-0.23;100.00
36062;BME280;22123;52.412;20.970;2022-12-07T05:42:29;99823.81;;;-0.25;100.00
36062;BME280;22123;52.412;20.970;2022-12-07T05:44:54;99822.25;;;-0.27;100.00
36062;BME280;22123;52.412;20.970;2022-12-07T05:47:19;99831.88;;;-0.26;100.00
36062;BME280;22123;52.412;20.970;2022-12-07T05:49:44;99824.16;;;-0.29;100.00
36062;BME280;22123;52.412;20.970;2022-12-07T05:52:10;99832.09;;;-0.29;100.00
36062;BME280;22123;52.412;20.970;2022-12-07T05:54:35;99833.09;;;-0.30;100.00
36062;BME280;22123;52.412;20.970;2022-12-07T05:57:00;99833.16;;;-0.32;100.00
36062;BME280;22123;52.412;20.970;2022-12-07T05:59:26;99829.69;;;-0.32;100.00
36062;BME280;22123;52.412;20.970;2022-12-07T06:01:56;99828.88;;;-0.33;100.00
36062;BME280;22123;52.412;20.970;2022-12-07T06:04:22;99832.34;;;-0.32;100.00
36062;BME280;22123;52.412;20.970;2022-12-07T06:06:48;99830.66;;;-0.33;100.00
36062;BME280;22123;52.412;20.970;2022-12-07T06:09:13;99839.56;;;-0.34;100.00
36062;BME280;22123;52.412;20.970;2022-12-07T06:11:39;99840.41;;;-0.34;100.00
36062;BME280;22123;52.412;20.970;2022-12-07T06:14:23;99837.03;;;-0.36;100.00
36062;BME280;22123;52.412;20.970;2022-12-07T06:16:49;99840.63;;;-0.37;100.00
36062;BME280;22123;52.412;20.970;2022-12-07T06:19:14;99831.00;;;-0.38;100.00
36062;BME280;22123;52.412;20.970;2022-12-07T06:21:39;99833.88;;;-0.41;100.00
36062;BME280;22123;52.412;20.970;2022-12-07T06:24:05;99834.00;;;-0.43;100.00
36062;BME280;22123;52.412;20.970;2022-12-07T06:26:30;99830.66;;;-0.45;100.00
36062;BME280;22123;52.412;20.970;2022-12-07T06:28:55;99831.59;;;-0.46;100.00
36062;BME280;22123;52.412;20.970;2022-12-07T06:31:21;99828.22;;;-0.48;100.00
36062;BME280;22123;52.412;20.970;2022-12-07T06:33:46;99822.94;;;-0.48;100.00
36062;BME280;22123;52.412;20.970;2022-12-07T06:36:11;99826.56;;;-0.49;100.00
36062;BME280;22123;52.412;20.970;2022-12-07T06:38:37;99825.94;;;-0.53;100.00
36062;BME280;22123;52.412;20.970;2022-12-07T06:41:02;99826.78;;;-0.52;100.00
36062;BME280;22123;52.412;20.970;2022-12-07T06:43:27;99825.22;;;-0.55;100.00
36062;BME280;22123;52.412;20.970;2022-12-07T06:45:53;99823.53;;;-0.56;100.00
36062;BME280;22123;52.412;20.970;2022-12-07T06:48:18;99821.00;;;-0.57;100.00
36062;BME280;22123;52.412;20.970;2022-12-07T06:50:47;99822.81;;;-0.58;100.00
36062;BME280;22123;52.412;20.970;2022-12-07T06:53:13;99821.13;;;-0.59;100.00
36062;BME280;22123;52.412;20.970;2022-12-07T06:55:38;99819.41;;;-0.60;100.00
36062;BME280;22123;52.412;20.970;2022-12-07T06:58:04;99828.41;;;-0.62;100.00
36062;BME280;22123;52.412;20.970;2022-12-07T07:00:30;99814.38;;;-0.63;100.00
36062;BME280;22123;52.412;20.970;2022-12-07T07:02:55;99820.50;;;-0.62;100.00
36062;BME280;22123;52.412;20.970;2022-12-07T07:05:34;99822.31;;;-0.63;100.00
36062;BME280;22123;52.412;20.970;2022-12-07T07:08:02;99820.59;;;-0.64;100.00
36062;BME280;22123;52.412;20.970;2022-12-07T07:10:28;99826.88;;;-0.65;100.00
36062;BME280;22123;52.412;20.970;2022-12-07T07:12:54;99821.69;;;-0.66;100.00
36062;BME280;22123;52.412;20.970;2022-12-07T07:15:19;99820.00;;;-0.67;100.00
36062;BME280;22123;52.412;20.970;2022-12-07T07:17:45;99826.13;;;-0.67;100.00
36062;BME280;22123;52.412;20.970;2022-12-07T07:20:11;99818.06;;;-0.65;100.00
36062;BME280;22123;52.412;20.970;2022-12-07T07:22:37;99818.81;;;-0.63;100.00
36062;BME280;22123;52.412;20.970;2022-12-07T07:25:06;99816.06;;;-0.62;100.00
36062;BME280;22123;52.412;20.970;2022-12-07T07:27:31;99815.13;;;-0.61;100.00
36062;BME280;22123;52.412;20.970;2022-12-07T07:29:56;99817.63;;;-0.59;100.00
36062;BME280;22123;52.412;20.970;2022-12-07T07:32:21;99815.81;;;-0.59;100.00
36062;BME280;22123;52.412;20.970;2022-12-07T07:34:49;99822.81;;;-0.58;100.00
36062;BME280;22123;52.412;20.970;2022-12-07T07:37:16;99820.16;;;-0.58;100.00
36062;BME280;22123;52.412;20.970;2022-12-07T07:39:42;99816.41;;;-0.55;100.00
36062;BME280;22123;52.412;20.970;2022-12-07T07:42:07;99818.13;;;-0.54;100.00
36062;BME280;22123;52.412;20.970;2022-12-07T07:44:34;99821.50;;;-0.52;100.00
36062;BME280;22123;52.412;20.970;2022-12-07T07:46:59;99818.84;;;-0.52;100.00
36062;BME280;22123;52.412;20.970;2022-12-07T07:49:26;99815.22;;;-0.51;100.00
36062;BME280;22123;52.412;20.970;2022-12-07T07:51:51;99821.25;;;-0.49;100.00
36062;BME280;22123;52.412;20.970;2022-12-07T07:54:18;99813.22;;;-0.47;100.00
36062;BME280;22123;52.412;20.970;2022-12-07T07:56:43;99817.56;;;-0.46;100.00
36062;BME280;22123;52.412;20.970;2022-12-07T07:59:08;99822.72;;;-0.45;100.00
36062;BME280;22123;52.412;20.970;2022-12-07T08:01:33;99820.78;;;-0.43;100.00
36062;BME280;22123;52.412;20.970;2022-12-07T08:03:59;99817.91;;;-0.40;100.00
36062;BME280;22123;52.412;20.970;2022-12-07T08:06:25;99823.94;;;-0.38;100.00
36062;BME280;22123;52.412;20.970;2022-12-07T08:08:51;99819.47;;;-0.37;100.00
36062;BME280;22123;52.412;20.970;2022-12-07T08:11:17;99815.88;;;-0.36;100.00
36062;BME280;22123;52.412;20.970;2022-12-07T08:13:49;99820.94;;;-0.33;100.00
36062;BME280;22123;52.412;20.970;2022-12-07T08:16:15;99822.59;;;-0.32;100.00
36062;BME280;22123;52.412;20.970;2022-12-07T08:18:42;99823.22;;;-0.28;100.00
36062;BME280;22123;52.412;20.970;2022-12-07T08:21:09;99819.63;;;-0.27;100.00
36062;BME280;22123;52.412;20.970;2022-12-07T08:23:39;99829.22;;;-0.26;100.00
36062;BME280;22123;52.412;20.970;2022-12-07T08:26:12;99828.25;;;-0.25;100.00
36062;BME280;22123;52.412;20.970;2022-12-07T08:28:39;99826.38;;;-0.23;100.00
36062;BME280;22123;52.412;20.970;2022-12-07T08:31:12;99826.94;;;-0.20;100.00
36062;BME280;22123;52.412;20.970;2022-12-07T08:33:41;99830.31;;;-0.18;100.00
36062;BME280;22123;52.412;20.970;2022-12-07T08:36:10;99825.75;;;-0.15;100.00
36062;BME280;22123;52.412;20.970;2022-12-07T08:38:37;99829.84;;;-0.11;100.00
36062;BME280;22123;52.412;20.970;2022-12-07T08:41:04;99831.41;;;-0.09;100.00
36062;BME280;22123;52.412;20.970;2022-12-07T08:43:29;99833.84;;;-0.06;100.00
36062;BME280;22123;52.412;20.970;2022-12-07T08:48:34;99839.59;;;-0.01;100.00
36062;BME280;22123;52.412;20.970;2022-12-07T08:51:01;99828.63;;;0.04;100.00
36062;BME280;22123;52.412;20.970;2022-12-07T08:53:27;99827.31;;;0.10;100.00
36062;BME280;22123;52.412;20.970;2022-12-07T08:55:53;99828.66;;;0.15;100.00
36062;BME280;22123;52.412;20.970;2022-12-07T08:58:21;99832.75;;;0.20;100.00
36062;BME280;22123;52.412;20.970;2022-12-07T09:00:46;99827.06;;;0.24;100.00
36062;BME280;22123;52.412;20.970;2022-12-07T09:03:12;99827.69;;;0.28;100.00
36062;BME280;22123;52.412;20.970;2022-12-07T09:05:37;99825.63;;;0.31;100.00
36062;BME280;22123;52.412;20.970;2022-12-07T09:08:04;99821.78;;;0.36;100.00
36062;BME280;22123;52.412;20.970;2022-12-07T09:10:29;99816.22;;;0.39;100.00
36062;BME280;22123;52.412;20.970;2022-12-07T09:12:55;99819.50;;;0.42;100.00
36062;BME280;22123;52.412;20.970;2022-12-07T09:15:22;99820.91;;;0.46;100.00
36062;BME280;22123;52.412;20.970;2022-12-07T09:17:49;99812.75;;;0.49;100.00
36062;BME280;22123;52.412;20.970;2022-12-07T09:20:14;99815.13;;;0.52;100.00
36062;BME280;22123;52.412;20.970;2022-12-07T09:22:40;99812.09;;;0.57;100.00
36062;BME280;22123;52.412;20.970;2022-12-07T09:25:05;99797.91;;;0.58;100.00
36062;BME280;22123;52.412;20.970;2022-12-07T09:27:33;99807.50;;;0.59;100.00
36062;BME280;22123;52.412;20.970;2022-12-07T09:29:58;99795.84;;;0.62;100.00
36062;BME280;22123;52.412;20.970;2022-12-07T09:32:25;99798.09;;;0.66;100.00
36062;BME280;22123;52.412;20.970;2022-12-07T09:34:59;99795.19;;;0.69;100.00
36062;BME280;22123;52.412;20.970;2022-12-07T09:37:33;99792.31;;;0.73;100.00
36062;BME280;22123;52.412;20.970;2022-12-07T09:40:01;99787.84;;;0.73;100.00
36062;BME280;22123;52.412;20.970;2022-12-07T09:42:28;99798.47;;;0.73;100.00
36062;BME280;22123;52.412;20.970;2022-12-07T09:44:54;99797.63;;;0.73;100.00
36062;BME280;22123;52.412;20.970;2022-12-07T09:47:20;99803.50;;;0.76;100.00
36062;BME280;22123;52.412;20.970;2022-12-07T09:49:46;99796.38;;;0.77;100.00
36062;BME280;22123;52.412;20.970;2022-12-07T09:52:24;99789.28;;;0.77;100.00
36062;BME280;22123;52.412;20.970;2022-12-07T09:57:52;99790.72;;;0.81;100.00
36062;BME280;22123;52.412;20.970;2022-12-07T10:00:20;99789.03;;;0.80;100.00
36062;BME280;22123;52.412;20.970;2022-12-07T10:03:00;99788.09;;;0.81;100.00
36062;BME280;22123;52.412;20.970;2022-12-07T10:05:27;99788.09;;;0.81;100.00
36062;BME280;22123;52.412;20.970;2022-12-07T10:07:56;99789.75;;;0.82;100.00
36062;BME280;22123;52.412;20.970;2022-12-07T10:10:26;99777.47;;;0.81;100.00
36062;BME280;22123;52.412;20.970;2022-12-07T10:12:53;99789.88;;;0.81;100.00
36062;BME280;22123;52.412;20.970;2022-12-07T10:15:19;99781.22;;;0.79;100.00
36062;BME280;22123;52.412;20.970;2022-12-07T10:17:49;99776.88;;;0.78;100.00
36062;BME280;22123;52.412;20.970;2022-12-07T10:20:16;99779.66;;;0.76;100.00
36062;BME280;22123;52.412;20.970;2022-12-07T10:22:56;99780.75;;;0.74;100.00
36062;BME280;22123;52.412;20.970;2022-12-07T10:25:26;99787.03;;;0.73;100.00
36062;BME280;22123;52.412;20.970;2022-12-07T10:28:12;99776.44;;;0.73;100.00
36062;BME280;22123;52.412;20.970;2022-12-07T10:33:33;99782.56;;;0.73;100.00
36062;BME280;22123;52.412;20.970;2022-12-07T10:35:59;99787.03;;;0.73;100.00
36062;BME280;22123;52.412;20.970;2022-12-07T10:38:26;99781.72;;;0.73;100.00
36062;BME280;22123;52.412;20.970;2022-12-07T10:41:07;99775.44;;;0.74;100.00
36062;BME280;22123;52.412;20.970;2022-12-07T10:43:33;99779.78;;;0.75;100.00
36062;BME280;22123;52.412;20.970;2022-12-07T10:48:39;99782.69;;;0.72;100.00
36062;BME280;22123;52.412;20.970;2022-12-07T10:53:51;99775.19;;;0.77;100.00
36062;BME280;22123;52.412;20.970;2022-12-07T11:01:50;99778.03;;;0.96;100.00
36062;BME280;22123;52.412;20.970;2022-12-07T11:15:13;99780.63;;;1.08;100.00
36062;BME280;22123;52.412;20.970;2022-12-07T11:18:04;99778.66;;;1.10;100.00
36062;BME280;22123;52.412;20.970;2022-12-07T11:26:08;99778.50;;;1.23;100.00
36062;BME280;22123;52.412;20.970;2022-12-07T11:31:10;99779.22;;;1.25;100.00
36062;BME280;22123;52.412;20.970;2022-12-07T11:36:38;99770.53;;;1.23;100.00
36062;BME280;22123;52.412;20.970;2022-12-07T11:39:21;99772.34;;;1.22;100.00
36062;BME280;22123;52.412;20.970;2022-12-07T11:41:50;99770.66;;;1.21;100.00
36062;BME280;22123;52.412;20.970;2022-12-07T11:47:13;99766.44;;;1.18;100.00
36062;BME280;22123;52.412;20.970;2022-12-07T11:49:45;99763.09;;;1.16;100.00
36062;BME280;22123;52.412;20.970;2022-12-07T11:52:16;99762.38;;;1.14;100.00
36062;BME280;22123;52.412;20.970;2022-12-07T11:54:43;99762.13;;;1.17;100.00
36062;BME280;22123;52.412;20.970;2022-12-07T11:57:17;99755.97;;;1.17;100.00
36062;BME280;22123;52.412;20.970;2022-12-07T11:59:52;99759.50;;;1.17;100.00
36062;BME280;22123;52.412;20.970;2022-12-07T12:02:26;99747.75;;;1.20;100.00
36062;BME280;22123;52.412;20.970;2022-12-07T12:07:41;99743.63;;;1.27;100.00
36062;BME280;22123;52.412;20.970;2022-12-07T12:10:19;99746.75;;;1.32;100.00
36062;BME280;22123;52.412;20.970;2022-12-07T12:18:19;99743.22;;;1.53;100.00
36062;BME280;22123;52.412;20.970;2022-12-07T12:20:58;99744.25;;;1.62;100.00
36062;BME280;22123;52.412;20.970;2022-12-07T12:23:32;99737.09;;;1.62;100.00
36062;BME280;22123;52.412;20.970;2022-12-07T12:26:01;99734.59;;;1.61;100.00
36062;BME280;22123;52.412;20.970;2022-12-07T12:28:40;99736.81;;;1.55;100.00
36062;BME280;22123;52.412;20.970;2022-12-07T12:31:12;99728.41;;;1.50;100.00
36062;BME280;22123;52.412;20.970;2022-12-07T12:33:42;99732.53;;;1.43;100.00
36062;BME280;22123;52.412;20.970;2022-12-07T12:47:37;99721.91;;;1.33;100.00
36062;BME280;22123;52.412;20.970;2022-12-07T12:50:10;99724.69;;;1.32;100.00
36062;BME280;22123;52.412;20.970;2022-12-07T12:55:14;99717.97;;;1.28;100.00
36062;BME280;22123;52.412;20.970;2022-12-07T12:57:45;99713.63;;;1.27;100.00
36062;BME280;22123;52.412;20.970;2022-12-07T13:15:43;99712.66;;;1.28;100.00
36062;BME280;22123;52.412;20.970;2022-12-07T13:24:10;99711.09;;;1.25;100.00
36062;BME280;22123;52.412;20.970;2022-12-07T13:28:40;99711.03;;;1.15;100.00
36062;BME280;22123;52.412;20.970;2022-12-07T13:33:42;99712.25;;;1.11;100.00
36062;BME280;22123;52.412;20.970;2022-12-07T13:36:12;99709.75;;;1.10;100.00
36062;BME280;22123;52.412;20.970;2022-12-07T13:38:39;99706.25;;;1.09;100.00
36062;BME280;22123;52.412;20.970;2022-12-07T13:41:17;99709.03;;;1.08;100.00
36062;BME280;22123;52.412;20.970;2022-12-07T13:43:48;99706.53;;;1.06;100.00
36062;BME280;22123;52.412;20.970;2022-12-07T13:46:19;99711.97;;;1.04;100.00
36062;BME280;22123;52.412;20.970;2022-12-07T13:48:47;99708.56;;;1.02;100.00
36062;BME280;22123;52.412;20.970;2022-12-07T13:51:20;99714.00;;;1.01;100.00
36062;BME280;22123;52.412;20.970;2022-12-07T13:53:59;99711.63;;;0.98;100.00
36062;BME280;22123;52.412;20.970;2022-12-07T13:56:29;99718.00;;;0.95;100.00
36062;BME280;22123;52.412;20.970;2022-12-07T13:58:58;99710.19;;;0.94;100.00
36062;BME280;22123;52.412;20.970;2022-12-07T14:04:32;99718.53;;;0.89;100.00
36062;BME280;22123;52.412;20.970;2022-12-07T14:06:57;99716.84;;;0.88;100.00
36062;BME280;22123;52.412;20.970;2022-12-07T14:09:24;99713.50;;;0.86;100.00
36062;BME280;22123;52.412;20.970;2022-12-07T14:11:51;99711.94;;;0.83;100.00
36062;BME280;22123;52.412;20.970;2022-12-07T14:14:19;99706.06;;;0.80;100.00
36062;BME280;22123;52.412;20.970;2022-12-07T14:22:26;99728.75;;;0.73;100.00
36062;BME280;22123;52.412;20.970;2022-12-07T14:24:57;99720.91;;;0.71;100.00
36062;BME280;22123;52.412;20.970;2022-12-07T14:27:23;99722.97;;;0.67;100.00
36062;BME280;22123;52.412;20.970;2022-12-07T14:29:55;99723.22;;;0.64;100.00
36062;BME280;22123;52.412;20.970;2022-12-07T14:32:23;99722.53;;;0.62;100.00
36062;BME280;22123;52.412;20.970;2022-12-07T14:35:12;99720.22;;;0.58;100.00
36062;BME280;22123;52.412;20.970;2022-12-07T14:37:39;99715.31;;;0.53;100.00
36062;BME280;22123;52.412;20.970;2022-12-07T14:40:12;99721.00;;;0.48;100.00
36062;BME280;22123;52.412;20.970;2022-12-07T14:43:12;99729.06;;;0.47;100.00
36062;BME280;22123;52.412;20.970;2022-12-07T14:45:39;99723.16;;;0.43;100.00
36062;BME280;22123;52.412;20.970;2022-12-07T14:48:12;99721.75;;;0.39;100.00